createdAt,value
2023-02-18T00:00:18.499Z,7.91
2023-02-18T00:05:20.313Z,7.91
2023-02-18T00:10:22.198Z,7.91
2023-02-18T00:15:24.051Z,7.82
2023-02-18T00:20:25.850Z,7.80
2023-02-18T00:25:27.616Z,7.75
2023-02-18T00:30:29.616Z,7.69
2023-02-18T00:35:31.479Z,7.68
2023-02-18T00:40:33.269Z,7.71
2023-02-18T00:45:35.129Z,7.79
2023-02-18T00:50:36.932Z,7.80
2023-02-18T00:55:40.525Z,7.81
2023-02-18T01:00:42.768Z,7.80
2023-02-18T01:05:44.795Z,7.81
2023-02-18T01:10:49.031Z,7.79
2023-02-18T01:15:51.385Z,7.79
2023-02-18T01:20:53.592Z,7.79
2023-02-18T01:25:56.252Z,7.72
2023-02-18T01:30:58.076Z,7.66
2023-02-18T01:36:00.552Z,7.65
2023-02-18T01:41:02.806Z,7.64
2023-02-18T01:46:26.840Z,7.62
2023-02-18T01:51:37.087Z,7.61
2023-02-18T01:57:07.552Z,7.62
2023-02-18T02:02:14.675Z,7.61
2023-02-18T02:07:18.694Z,7.60
2023-02-18T02:12:23.949Z,7.64
2023-02-18T02:17:46.393Z,7.62
2023-02-18T02:23:06.344Z,7.61
2023-02-18T02:28:14.334Z,7.55
2023-02-18T02:33:37.460Z,7.47
2023-02-18T02:39:03.789Z,7.39
2023-02-18T02:44:20.851Z,7.27
2023-02-18T02:49:58.942Z,7.17
2023-02-18T02:55:03.786Z,7.10
2023-02-18T03:00:10.344Z,7.07
2023-02-18T03:05:30.867Z,7.03
2023-02-18T03:10:39.798Z,7.03
2023-02-18T03:15:56.566Z,7.02
2023-02-18T03:21:09.333Z,7.01
2023-02-18T03:26:12.716Z,6.98
2023-02-18T03:31:18.484Z,7.00
2023-02-18T03:36:22.426Z,7.00
2023-02-18T03:41:24.437Z,7.01
2023-02-18T03:46:27.938Z,7.06
2023-02-18T03:51:30.356Z,7.10
2023-02-18T03:56:32.331Z,7.18
2023-02-18T04:01:34.270Z,7.23
2023-02-18T04:06:36.241Z,7.22
2023-02-18T04:11:39.532Z,7.24
2023-02-18T04:16:41.903Z,7.22
2023-02-18T04:21:43.707Z,7.20
2023-02-18T04:26:45.494Z,7.19
2023-02-18T04:31:47.359Z,7.17
2023-02-18T04:36:49.164Z,7.18
2023-02-18T04:41:50.993Z,7.19
2023-02-18T04:46:52.779Z,7.17
2023-02-18T04:51:54.597Z,7.16
2023-02-18T04:56:56.475Z,7.15
2023-02-18T05:01:58.390Z,7.16
2023-02-18T05:07:00.192Z,7.18
2023-02-18T05:12:02.198Z,7.19
2023-02-18T05:17:03.956Z,7.20
2023-02-18T05:22:05.768Z,7.18
2023-02-18T05:27:07.600Z,7.17
2023-02-18T05:32:09.453Z,7.20
2023-02-18T05:37:11.319Z,7.25
2023-02-18T05:42:13.173Z,7.18
2023-02-18T05:47:15.233Z,7.22
2023-02-18T05:52:17.313Z,7.28
2023-02-18T05:57:19.095Z,7.27
2023-02-18T06:02:20.973Z,7.32
2023-02-18T06:07:22.918Z,7.29
2023-02-18T06:12:24.802Z,7.28
2023-02-18T06:17:26.577Z,7.24
2023-02-18T06:22:28.589Z,7.22
2023-02-18T06:27:30.374Z,7.19
2023-02-18T06:32:32.189Z,7.15
2023-02-18T06:37:34.177Z,7.12
2023-02-18T06:42:35.985Z,7.12
2023-02-18T06:47:37.784Z,7.19
2023-02-18T06:52:39.587Z,7.26
2023-02-18T06:57:43.673Z,7.39
2023-02-18T07:02:45.628Z,7.55
2023-02-18T07:07:47.454Z,7.69
2023-02-18T07:12:49.576Z,7.81
2023-02-18T07:17:52.106Z,7.90
2023-02-18T07:22:54.350Z,7.95
2023-02-18T07:27:56.713Z,8.01
2023-02-18T07:32:58.547Z,8.11
2023-02-18T07:38:00.344Z,8.22
2023-02-18T07:43:02.103Z,8.32
2023-02-18T07:48:04.274Z,8.46
2023-02-18T07:53:07.098Z,8.66
2023-02-18T07:58:08.969Z,8.81
2023-02-18T08:03:11.153Z,8.98
2023-02-18T08:08:20.464Z,9.07
2023-02-18T08:13:22.587Z,9.16
2023-02-18T08:18:26.104Z,9.20
2023-02-18T08:23:27.972Z,9.37
2023-02-18T08:28:29.797Z,9.52
2023-02-18T08:33:32.362Z,9.68
2023-02-18T08:38:34.113Z,9.78
2023-02-18T08:43:36.677Z,9.67
2023-02-18T08:48:38.628Z,9.52
2023-02-18T08:53:40.507Z,9.40
2023-02-18T08:58:42.696Z,9.35
2023-02-18T09:03:44.749Z,9.32
2023-02-18T09:08:46.629Z,9.39
2023-02-18T09:13:48.467Z,9.46
2023-02-18T09:18:50.415Z,9.50
2023-02-18T09:23:52.638Z,9.53
2023-02-18T09:28:56.722Z,9.51
2023-02-18T09:34:01.051Z,9.10
2023-02-18T09:39:03.013Z,8.94
2023-02-18T09:44:18.308Z,8.96
2023-02-18T09:49:25.362Z,9.08
2023-02-18T09:54:27.552Z,9.29
2023-02-18T09:59:31.472Z,9.52
2023-02-18T10:04:50.990Z,9.67
2023-02-18T10:09:55.384Z,9.88
2023-02-18T10:15:00.446Z,10.08
2023-02-18T10:20:06.305Z,10.19
2023-02-18T10:25:18.947Z,10.22
2023-02-18T10:30:43.276Z,10.31
2023-02-18T10:35:51.260Z,10.42
2023-02-18T10:41:02.029Z,10.50
2023-02-18T10:46:22.290Z,10.49
2023-02-18T10:51:29.504Z,10.51
2023-02-18T10:56:49.387Z,10.41
2023-02-18T11:02:05.482Z,10.26
2023-02-18T11:07:14.523Z,10.20
2023-02-18T11:12:26.222Z,10.17
2023-02-18T11:17:31.277Z,10.15
2023-02-18T11:22:37.029Z,10.16
2023-02-18T11:27:44.076Z,10.19
2023-02-18T11:32:48.894Z,10.15
2023-02-18T11:37:52.098Z,9.92
2023-02-18T11:43:07.532Z,9.88
2023-02-18T11:48:23.867Z,9.78
2023-02-18T11:53:36.300Z,9.74
2023-02-18T11:58:43.764Z,9.70
2023-02-18T12:04:05.798Z,9.68
2023-02-18T12:09:20.635Z,9.57
2023-02-18T12:14:24.251Z,9.50
2023-02-18T12:19:44.403Z,9.48
2023-02-18T12:24:52.385Z,9.44
2023-02-18T12:30:15.639Z,9.48
2023-02-18T12:35:41.700Z,9.46
2023-02-18T12:41:01.888Z,9.44
2023-02-18T12:46:36.594Z,9.43
2023-02-18T12:51:38.361Z,9.27
2023-02-18T12:56:54.087Z,9.34
2023-02-18T13:02:20.113Z,9.50
2023-02-18T13:07:37.963Z,9.51
2023-02-18T13:12:59.493Z,9.53
2023-02-18T13:18:04.958Z,9.70
2023-02-18T13:23:14.014Z,9.70
2023-02-18T13:28:40.814Z,8.99
2023-02-18T13:34:10.705Z,8.69
2023-02-18T13:39:22.415Z,8.94
2023-02-18T13:44:24.992Z,9.06
2023-02-18T13:49:33.914Z,9.13
2023-02-18T13:54:44.914Z,9.16
2023-02-18T13:59:57.166Z,9.22
2023-02-18T14:05:08.634Z,9.29
2023-02-18T14:10:35.587Z,9.34
2023-02-18T14:15:57.706Z,9.34
2023-02-18T14:21:36.954Z,9.35
2023-02-18T14:26:47.103Z,9.35
2023-02-18T14:31:54.207Z,9.35
2023-02-18T14:37:08.214Z,9.38
2023-02-18T14:42:28.223Z,9.34
2023-02-18T14:47:39.171Z,9.25
2023-02-18T14:52:57.884Z,9.31
2023-02-18T14:58:03.903Z,9.36
2023-02-18T15:03:16.769Z,9.36
2023-02-18T15:08:19.907Z,9.39
2023-02-18T15:13:29.732Z,9.41
2023-02-18T15:18:44.840Z,9.42
2023-02-18T15:23:47.321Z,9.40
2023-02-18T15:29:01.349Z,9.30
2023-02-18T15:34:09.178Z,9.05
2023-02-18T15:39:11.117Z,9.02
2023-02-18T15:44:22.121Z,8.99
2023-02-18T15:49:24.832Z,9.14
2023-02-18T15:54:27.466Z,9.10
2023-02-18T15:59:32.572Z,8.95
2023-02-18T16:04:38.861Z,9.01
2023-02-18T16:09:40.781Z,9.12
2023-02-18T16:14:48.618Z,8.94
2023-02-18T16:20:04.277Z,8.46
2023-02-18T16:25:14.591Z,8.26
2023-02-18T16:30:23.286Z,8.13
2023-02-18T16:35:32.747Z,8.22
2023-02-18T16:40:41.457Z,8.37
2023-02-18T16:45:55.989Z,8.40
2023-02-18T16:51:02.558Z,8.50
2023-02-18T16:56:04.788Z,8.36
2023-02-18T17:01:06.768Z,8.31
2023-02-18T17:06:08.967Z,8.23
2023-02-18T17:11:36.675Z,8.21
2023-02-18T17:16:38.801Z,8.24
2023-02-18T17:21:41.615Z,8.32
2023-02-18T17:26:43.979Z,8.46
2023-02-18T17:31:47.494Z,8.45
2023-02-18T17:36:49.546Z,8.24
2023-02-18T17:41:51.446Z,8.23
2023-02-18T17:46:59.027Z,8.35
2023-02-18T17:52:02.464Z,8.28
2023-02-18T17:57:04.328Z,7.98
2023-02-18T18:02:24.880Z,7.81
2023-02-18T18:07:26.717Z,7.75
2023-02-18T18:12:30.277Z,7.59
2023-02-18T18:17:32.206Z,7.51
2023-02-18T18:22:33.996Z,7.43
2023-02-18T18:27:35.806Z,7.39
2023-02-18T18:32:37.631Z,7.34
2023-02-18T18:37:39.434Z,7.31
2023-02-18T18:42:41.287Z,7.27
2023-02-18T18:47:43.300Z,7.29
2023-02-18T18:52:45.808Z,7.28
2023-02-18T18:57:47.790Z,7.19
2023-02-18T19:02:49.701Z,7.19
2023-02-18T19:07:51.725Z,7.19
2023-02-18T19:12:53.622Z,7.18
2023-02-18T19:17:55.519Z,7.27
2023-02-18T19:22:57.358Z,7.29
2023-02-18T19:27:59.217Z,7.33
2023-02-18T19:33:06.011Z,7.30
2023-02-18T19:38:13.720Z,7.27
2023-02-18T19:43:15.701Z,7.29
2023-02-18T19:48:17.606Z,7.33
2023-02-18T19:53:19.444Z,7.32
2023-02-18T19:58:21.248Z,7.23
2023-02-18T20:03:23.202Z,7.25
2023-02-18T20:08:25.046Z,7.29
2023-02-18T20:13:27.441Z,7.28
2023-02-18T20:18:29.227Z,7.31
2023-02-18T20:23:31.019Z,7.35
2023-02-18T20:28:32.842Z,7.37
2023-02-18T20:33:34.661Z,7.36
2023-02-18T20:38:37.446Z,7.39
2023-02-18T20:43:39.495Z,7.44
2023-02-18T20:48:41.404Z,7.46
2023-02-18T20:53:44.324Z,7.52
2023-02-18T20:58:46.868Z,7.53
2023-02-18T21:03:49.264Z,7.56
2023-02-18T21:08:53.318Z,7.54
2023-02-18T21:13:56.749Z,7.53
2023-02-18T21:18:59.267Z,7.47
2023-02-18T21:24:01.293Z,7.39
2023-02-18T21:29:05.890Z,7.27
2023-02-18T21:34:11.739Z,7.22
2023-02-18T21:39:13.571Z,7.20
2023-02-18T21:44:15.437Z,7.17
2023-02-18T21:49:17.644Z,7.18
2023-02-18T21:54:21.928Z,7.21
2023-02-18T21:59:26.906Z,7.24
2023-02-18T22:04:30.953Z,7.22
2023-02-18T22:09:32.818Z,7.21
2023-02-18T22:14:35.954Z,7.20
2023-02-18T22:19:37.875Z,7.20
2023-02-18T22:24:39.682Z,7.24
2023-02-18T22:29:41.535Z,7.25
2023-02-18T22:34:43.304Z,7.29
2023-02-18T22:39:45.086Z,7.33
2023-02-18T22:44:46.937Z,7.37
2023-02-18T22:49:48.730Z,7.29
2023-02-18T22:54:50.510Z,7.26
2023-02-18T22:59:52.440Z,7.26
2023-02-18T23:04:54.232Z,7.25
2023-02-18T23:09:56.070Z,7.14
2023-02-18T23:14:57.863Z,7.10
2023-02-18T23:19:59.758Z,7.16
2023-02-18T23:25:02.189Z,7.17
2023-02-18T23:30:04.273Z,7.20
2023-02-18T23:35:06.426Z,7.29
2023-02-18T23:40:08.974Z,7.37
2023-02-18T23:45:10.781Z,7.37
2023-02-18T23:50:16.322Z,7.40
2023-02-18T23:55:18.228Z,7.39
